Flight Track Log - Related Links

Times and Time Zones

All times are in EDT time to prevent confusion due to time zone crossing. See the AAL1686 flight status page for this flight to view local times or setup timezone preferences in your user account.

Time Position Orientation Groundspeed Altitude Reporting Facility
EDT Latitude Longitude Course Direction KTS MPH feet Rate Location/Type
Fri 07:44:00 PM 33.9333 -118.4333 55° Northeast 170 196 1,600  Level Southern California TRACON
Fri 07:45:09 PM 33.9117 -118.5194 253° West 233 268 3,300 2,153 Climbing Los Angeles Center
Fri 07:46:00 PM 34.1184 -118.0966 59° Northeast  Level FlightAware Approximate
Fri 07:46:11 PM 33.8583 -118.5814 224° Southwest 270 311 6,300  Level Los Angeles Center
Fri 07:47:00 PM 34.1815 -117.9703 59° Northeast  Level FlightAware Approximate
Fri 07:47:14 PM 33.8167 -118.5286 134° Southeast 267 307 8,600  Level Los Angeles Center
Fri 07:48:00 PM 34.2520 -117.8607 68° East  Level FlightAware Approximate
Fri 07:48:16 PM 33.8867 -118.4597 39° Northeast 304 350 10,800  Level Los Angeles Center
Fri 07:49:00 PM 34.3104 -117.7361 55° Northeast  Level FlightAware Approximate
Fri 07:49:18 PM 33.9564 -118.3906 39° Northeast 343 395 12,300  Level Los Angeles Center
Fri 07:50:20 PM 34.0056 -118.3000 57° Northeast 370 426 14,200 2,129 Climbing Los Angeles Center
Fri 07:51:22 PM 34.0825 -118.1703 54° Northeast 390 449 16,700 1,984 Climbing Los Angeles Center
Fri 07:52:24 PM 34.1469 -118.0553 56° Northeast 406 467 18,300 1,742 Climbing Los Angeles Center
Fri 07:53:26 PM 34.2131 -117.9364 56° Northeast 420 483 20,300 1,742 Climbing Los Angeles Center
Fri 07:54:28 PM 34.2806 -117.8164 56° Northeast 428 493 21,900 1,403 Climbing Los Angeles Center
Fri 07:55:30 PM 34.3506 -117.6917 56° Northeast 442 509 23,200 1,403 Climbing Los Angeles Center
Fri 07:56:32 PM 34.4194 -117.5667 56° Northeast 452 520 24,800 1,790 Climbing Los Angeles Center
Fri 07:57:34 PM 34.5067 -117.4150 55° Northeast 458 527 26,900 1,584 Climbing Los Angeles Center
Fri 07:58:37 PM 34.5928 -117.3031 47° Northeast 454 522 28,100 1,248 Climbing Los Angeles Center
Fri 07:59:39 PM 34.6750 -117.1872 49° Northeast 456 525 29,500 1,258 Climbing Los Angeles Center
Fri 08:00:41 PM 34.7556 -117.0733 49° Northeast 451 519 30,700 968 Climbing Los Angeles Center
Fri 08:01:43 PM 34.8517 -116.9356 50° Northeast 450 518 31,500 919 Climbing Los Angeles Center
Fri 08:02:45 PM 34.9331 -116.8214 49° Northeast 451 519 32,600 726 Climbing Los Angeles Center
Fri 08:03:47 PM 35.0122 -116.7078 50° Northeast 445 512 33,000 194 Climbing Los Angeles Center
Fri 08:04:49 PM 35.0903 -116.5961 49° Northeast 438 504 33,000 -48 Level Los Angeles Center
Fri 08:05:51 PM 35.1719 -116.4792 49° Northeast 443 510 32,900  Descending Los Angeles Center
Fri 08:06:53 PM 35.2519 -116.3703 48° Northeast 440 506 33,000 48 Climbing Los Angeles Center
Fri 08:07:55 PM 35.3467 -116.2317 50° Northeast 442 509 33,000  Level Los Angeles Center
Fri 08:08:58 PM 35.4242 -116.1167 50° Northeast 440 506 33,000  Level Los Angeles Center
Fri 08:10:00 PM 35.5053 -116.0044 48° Northeast 443 510 33,000  Level Los Angeles Center
Fri 08:11:02 PM 35.5931 -115.8753 50° Northeast 439 505 33,000  Level Los Angeles Center
Fri 08:12:04 PM 35.6669 -115.7681 50° Northeast 435 501 33,000  Level Los Angeles Center
Fri 08:13:06 PM 35.7456 -115.6517 50° Northeast 441 507 33,000  Level Los Angeles Center
Fri 08:14:08 PM 35.8389 -115.5172 49° Northeast 434 499 33,000  Level Los Angeles Center
Fri 08:15:10 PM 35.9153 -115.4028 50° Northeast 434 499 33,000  Level Los Angeles Center
Fri 08:16:12 PM 35.9917 -115.2900 50° Northeast 431 496 33,000  Level Los Angeles Center
Fri 08:17:14 PM 36.0664 -115.1781 50° Northeast 428 493 33,000  Level Los Angeles Center
Fri 08:18:16 PM 36.1169 -115.0400 66° East 441 507 33,000  Level Los Angeles Center
Fri 08:19:18 PM 36.1692 -114.8683 69° East 447 514 33,000  Level Los Angeles Center
Fri 08:20:21 PM 36.2136 -114.7247 69° East 448 516 33,000  Level Los Angeles Center
Fri 08:21:23 PM 36.2578 -114.5803 69° East 450 518 33,000  Level Los Angeles Center
Fri 08:22:25 PM 36.3011 -114.4372 69° East 446 513 33,000  Level Los Angeles Center
Fri 08:23:27 PM 36.3439 -114.2936 70° East 445 512 33,000  Level Los Angeles Center
Fri 08:24:29 PM 36.3872 -114.1503 69° East 445 512 33,000  Level Los Angeles Center
Fri 08:25:31 PM 36.4392 -113.9792 69° East 443 510 33,000  Level Los Angeles Center
Fri 08:26:33 PM 36.4800 -113.8383 70° East 437 503 33,000  Level Los Angeles Center
Fri 08:27:35 PM 36.5200 -113.7053 69° East 436 502 33,000  Level Los Angeles Center
Fri 08:28:37 PM 36.5611 -113.5619 70° East 439 505 33,000  Level Los Angeles Center
Fri 08:29:39 PM 36.6114 -113.3939 70° East 435 501 33,000  Level Los Angeles Center
Fri 08:30:41 PM 36.6517 -113.2531 70° East 434 499 33,000  Level Los Angeles Center
Fri 08:31:44 PM 36.6922 -113.1128 70° East 433 498 33,000  Level Los Angeles Center
Fri 08:32:46 PM 36.7328 -112.9714 70° East 435 501 33,000  Level Los Angeles Center
Fri 08:33:48 PM 36.7733 -112.8317 70° East 433 498 33,000  Level Los Angeles Center
Fri 08:34:50 PM 36.8208 -112.6625 71° East 433 498 33,000  Level Los Angeles Center
Fri 08:35:52 PM 36.8614 -112.5225 70° East 432 497 33,000  Level Los Angeles Center
Fri 08:36:54 PM 36.8997 -112.3814 71° East 432 497 33,000  Level Los Angeles Center
Fri 08:37:56 PM 36.9397 -112.2411 70° East 432 497 33,000  Level Los Angeles Center
Fri 08:38:58 PM 36.9794 -112.0981 71° East 436 502 33,000  Level Los Angeles Center
Fri 08:39:28 PM 37.0036 -112.0122 71° East 436 502 33,000  Level Denver Center
Fri 08:40:30 PM 37.0433 -111.8694 71° East 436 502 33,000  Level Denver Center
Fri 08:41:31 PM 37.0833 -111.7272 71° East 437 503 33,000  Level Denver Center
Fri 08:42:33 PM 37.1219 -111.5839 71° East 436 502 33,000  Level Denver Center
Fri 08:43:35 PM 37.1608 -111.4403 71° East 436 502 33,000  Level Denver Center
Fri 08:44:37 PM 37.2069 -111.2681 71° East 436 502 33,000  Level Denver Center
Fri 08:45:38 PM 37.2467 -111.1231 71° East 440 506 33,000  Level Denver Center
Fri 08:46:40 PM 37.2842 -110.9786 72° East 438 504 33,000  Level Denver Center
Fri 08:47:42 PM 37.3228 -110.8358 71° East 434 499 33,000  Level Denver Center
Fri 08:48:43 PM 37.3614 -110.6900 72° East 439 505 33,000  Level Denver Center
Fri 08:49:45 PM 37.3992 -110.5467 72° East 436 502 33,000  Level Denver Center
Fri 08:50:46 PM 37.4372 -110.4011 72° East 438 504 33,000  Level Denver Center
Fri 08:52:00 PM 37.4811 -110.2283 72° East 434 499 33,000  Level Denver Center
Fri 08:53:02 PM 37.5242 -110.0622 72° East 434 499 33,000  Level Denver Center
Fri 08:54:04 PM 37.5650 -109.9022 72° East 429 494 33,000  Level Denver Center
Fri 08:55:05 PM 37.6008 -109.7639 72° East 432 497 33,000  Level Denver Center
Fri 08:56:07 PM 37.6347 -109.6275 73° East 427 491 33,000  Level Denver Center
Fri 08:57:09 PM 37.6761 -109.4661 72° East 431 496 33,000  Level Denver Center
Fri 08:58:11 PM 37.7106 -109.3253 73° East 438 504 33,000  Level Denver Center
Fri 08:59:12 PM 37.7514 -109.1647 72° East 431 496 33,000  Level Denver Center
Fri 09:00:14 PM 37.7856 -109.0225 73° East 437 503 33,000  Level Denver Center
Fri 09:01:16 PM 37.8181 -108.8569 76° East 435 501 33,000  Level Denver Center
Fri 09:02:17 PM 37.8361 -108.7100 81° East 440 506 33,000  Level Denver Center
Fri 09:03:19 PM 37.8544 -108.5650 81° East 439 505 33,000  Level Denver Center
Fri 09:04:21 PM 37.8753 -108.3981 81° East 431 496 33,000  Level Denver Center
Fri 09:05:35 PM 37.8989 -108.2033 81° East 436 502 33,000  Level Denver Center
Fri 09:06:36 PM 37.9164 -108.0569 81° East 438 504 33,000  Level Denver Center
Fri 09:07:38 PM 37.9344 -107.9111 81° East 438 504 33,000  Level Denver Center
Fri 09:08:40 PM 37.9544 -107.7367 82° East 445 512 33,000  Level Denver Center
Fri 09:09:42 PM 37.9717 -107.5881 82° East 446 513 33,000  Level Denver Center
Fri 09:10:43 PM 37.9922 -107.4125 81° East 451 519 33,000  Level Denver Center
Fri 09:11:45 PM 38.0081 -107.2633 82° East 450 518 33,000  Level Denver Center
Fri 09:12:59 PM 38.0275 -107.1003 81° East 452 520 33,000  Level Denver Center
Fri 09:14:01 PM 38.0494 -106.9006 82° East 449 517 33,000  Level Denver Center
Fri 09:15:03 PM 38.0658 -106.7511 82° East 449 517 33,000  Level Denver Center
Fri 09:16:04 PM 38.0842 -106.5775 82° East 446 513 33,000  Level Denver Center
Fri 09:17:06 PM 38.0994 -106.4331 82° East 448 516 33,000  Level Denver Center
Fri 09:18:20 PM 38.1158 -106.2781 82° East 447 514 33,000  Level Denver Center
Fri 09:19:22 PM 38.1364 -106.0764 83° East 454 522 33,000  Level Denver Center
Fri 09:20:24 PM 38.1550 -105.9000 82° East 451 519 33,000  Level Denver Center
Fri 09:21:25 PM 38.1675 -105.7725 83° East 455 524 33,000  Level Denver Center
Fri 09:22:27 PM 38.1881 -105.5669 83° East 459 528 33,000  Level Denver Center
Fri 09:23:29 PM 38.2025 -105.4131 83° East 458 527 33,000  Level Denver Center
Fri 09:24:30 PM 38.2150 -105.2858 83° East 456 525 33,000  Level Denver Center
Fri 09:25:33 PM 38.2339 -105.0886 83° East 458 527 33,000  Level Denver Center
Fri 09:26:35 PM 38.2486 -104.9267 83° East 457 526 33,000  Level Denver Center
Fri 09:27:36 PM 38.2653 -104.7494 83° East 452 520 33,000  Level Denver Center
Fri 09:28:38 PM 38.2792 -104.5953 83° East 455 524 33,000  Level Denver Center
Fri 09:29:40 PM 38.2947 -104.4192 84° East 448 516 33,000  Level Denver Center
Fri 09:30:42 PM 38.3158 -104.2650 80° East 449 517 33,000  Level Denver Center
Fri 09:31:44 PM 38.3339 -104.1161 81° East 453 521 33,000  Level Denver Center
Fri 09:32:46 PM 38.3567 -103.9389 81° East 453 521 33,000  Level Denver Center
Fri 09:33:48 PM 38.3753 -103.7864 81° East 453 521 33,000  Level Denver Center
Fri 09:34:49 PM 38.3914 -103.6603 81° East 452 520 33,000  Level Denver Center
Fri 09:35:52 PM 38.4161 -103.4522 81° East 448 516 33,000  Level Denver Center
Fri 09:36:54 PM 38.4353 -103.3006 81° East 453 521 33,000  Level Denver Center
Fri 09:37:56 PM 38.4567 -103.1239 81° East 451 519 33,000  Level Denver Center
Fri 09:38:58 PM 38.4733 -102.9725 82° East 451 519 33,000 145 Level Denver Center
Fri 09:40:00 PM 38.4942 -102.7961 81° East 451 519 33,300 390 Climbing Denver Center
Fri 09:41:01 PM 38.5094 -102.6692 81° East 453 521 33,800 774 Climbing Denver Center
Fri 09:42:04 PM 38.5322 -102.4661 82° East 453 521 34,900 576 Climbing Denver Center
Fri 09:43:06 PM 38.5486 -102.3139 82° East 452 520 35,000 48 Climbing Denver Center
Fri 09:44:08 PM 38.5683 -102.1339 82° East 456 525 35,000  Level Denver Center
Fri 09:45:22 PM 38.5858 -101.9792 82° East 457 526 35,000  Level Denver Center
Fri 09:46:24 PM 38.6086 -101.7731 82° East 457 526 35,000  Level Denver Center
Fri 09:47:26 PM 38.6244 -101.6183 82° East 457 526 35,000  Level Denver Center
Fri 09:48:28 PM 38.6431 -101.4378 82° East 456 525 35,000  Level Denver Center
Fri 09:49:31 PM 38.6594 -101.2828 82° East 456 525 35,000  Level Denver Center
Fri 09:50:33 PM 38.6783 -101.1014 82° East 459 528 35,000  Level Denver Center
Fri 09:51:35 PM 38.6939 -100.9481 83° East 455 524 35,000  Level Denver Center
Fri 09:52:37 PM 38.7086 -100.7933 83° East 455 524 35,000  Level Denver Center
Fri 09:53:39 PM 38.7267 -100.6125 83° East 458 527 35,000  Level Denver Center
Fri 09:54:41 PM 38.7414 -100.4586 83° East 456 525 35,000  Level Denver Center
Fri 09:55:55 PM 38.7589 -100.2789 83° East 455 524 35,000  Level Denver Center
Fri 09:57:59 PM 38.7925 -99.9153 83° East 460 529 35,000  Level Denver Center
Fri 09:59:01 PM 38.8078 -99.7325 84° East 460 529 35,000  Level Denver Center
Fri 10:00:03 PM 38.8217 -99.5758 83° East 462 532 35,000  Level Denver Center
Fri 10:01:05 PM 38.8356 -99.4178 84° East 464 534 35,000  Level Denver Center
Fri 10:01:22 PM 38.8386 -99.3514 87° East 464 534 35,000  Level Kansas City Center
Fri 10:02:26 PM 38.8544 -99.1856 83° East 468 539 35,000  Level Kansas City Center
Fri 10:03:27 PM 38.8656 -99.0186 85° East 470 541 35,000  Level Kansas City Center
Fri 10:04:27 PM 38.8769 -98.8517 85° East 469 540 35,000  Level Kansas City Center
Fri 10:05:29 PM 38.8875 -98.6831 85° East 473 544 35,000  Level Kansas City Center
Fri 10:06:28 PM 38.8992 -98.5142 85° East 474 545 35,000  Level Kansas City Center
Fri 10:07:29 PM 38.9086 -98.3442 86° East 477 549 35,000  Level Kansas City Center
Fri 10:08:33 PM 38.9200 -98.1753 85° East 476 548 35,000  Level Kansas City Center
Fri 10:09:33 PM 38.9303 -98.0072 85° East 472 543 35,000  Level Kansas City Center
Fri 10:10:34 PM 38.9414 -97.8114 86° East 476 548 35,000  Level Kansas City Center
Fri 10:11:34 PM 38.9514 -97.6486 85° East 477 549 35,000  Level Kansas City Center
Fri 10:12:36 PM 38.9592 -97.4939 86° East 480 552 35,000  Level Kansas City Center
Fri 10:13:38 PM 38.9694 -97.3217 86° East 482 555 35,000  Level Kansas City Center
Fri 10:14:39 PM 38.9781 -97.1506 86° East 481 554 35,000  Level Kansas City Center
Fri 10:15:39 PM 38.9869 -96.9686 86° East 473 544 35,000  Level Kansas City Center
Fri 10:16:39 PM 38.9975 -96.7775 86° East 479 551 35,000  Level Kansas City Center
Fri 10:17:41 PM 39.0050 -96.6156 87° East 477 549 35,000  Level Kansas City Center
Fri 10:18:43 PM 39.0125 -96.4256 87° East 477 549 35,000  Level Kansas City Center
Fri 10:19:44 PM 39.0200 -96.2619 87° East 478 550 35,000  Level Kansas City Center
Fri 10:20:44 PM 39.0275 -96.0978 87° East 480 552 35,000  Level Kansas City Center
Fri 10:21:45 PM 39.0353 -95.9039 87° East 485 558 35,000  Level Kansas City Center
Fri 10:22:46 PM 39.0439 -95.7378 86° East 486 559 35,000  Level Kansas City Center
Fri 10:23:46 PM 39.0492 -95.5694 88° East 493 567 35,000  Level Kansas City Center
Fri 10:24:49 PM 39.0564 -95.3728 87° East 494 568 35,000  Level Kansas City Center
Fri 10:25:48 PM 39.0619 -95.1972 88° East 494 568 35,000  Level Kansas City Center
Fri 10:26:49 PM 39.0681 -95.0139 87° East 498 573 35,000  Level Kansas City Center
Fri 10:27:52 PM 39.0742 -94.8450 87° East 498 573 35,000  Level Kansas City Center
Fri 10:28:51 PM 39.0756 -94.6469 89° East 497 572 35,000  Level Kansas City Center
Fri 10:29:54 PM 39.0497 -94.4822 101° East 489 563 35,000  Level Kansas City Center
Fri 10:30:53 PM 39.0297 -94.3153 99° East 493 567 35,000  Level Kansas City Center
Fri 10:31:55 PM 39.0053 -94.1206 99° East 494 568 35,000  Level Kansas City Center
Fri 10:32:57 PM 38.9853 -93.9539 99° East 493 567 35,000 -295 Level Kansas City Center
Fri 10:33:57 PM 38.9644 -93.7858 99° East 498 573 34,400 -850 Descending Kansas City Center
Fri 10:34:57 PM 38.9406 -93.5853 99° East 500 575 33,300 -1,016 Descending Kansas City Center
Fri 10:36:01 PM 38.9186 -93.4067 99° East 502 578 32,300 -984 Descending Kansas City Center
Fri 10:36:59 PM 38.8953 -93.2275 99° East 505 581 31,300 -992 Descending Kansas City Center
Fri 10:38:02 PM 38.8722 -93.0497 99° East 503 579 30,300 -984 Descending Kansas City Center
Fri 10:39:01 PM 38.8481 -92.8733 100° East 501 577 29,300 -639 Descending Kansas City Center
Fri 10:40:04 PM 38.8256 -92.7014 99° East 493 567 29,000 -145 Descending Kansas City Center
Fri 10:41:05 PM 38.8019 -92.5328 100° East 483 556 29,000 -537 Level Kansas City Center
Fri 10:42:07 PM 38.7789 -92.3628 100° East 481 554 27,900 -1,800 Descending Kansas City Center
Fri 10:43:05 PM 38.7558 -92.1961 100° East 477 549 25,400 -1,934 Descending Kansas City Center
Fri 10:44:08 PM 38.7328 -92.0353 100° East 465 535 24,000 -1,659 Descending Kansas City Center
Fri 10:45:08 PM 38.7117 -91.8858 100° East 433 498 22,000 -1,983 Descending Kansas City Center
Fri 10:46:09 PM 38.6925 -91.7397 99° East 419 482 20,000 -2,049 Descending Kansas City Center
Fri 10:47:11 PM 38.6908 -91.5931 91° East 412 474 17,800 -1,854 Descending Kansas City Center
Fri 10:48:12 PM 38.6922 -91.4483 89° East 407 468 16,200 -1,967 Descending Kansas City Center
Fri 10:49:13 PM 38.6928 -91.3194 90° East 397 457 13,800 -2,508 Descending Kansas City Center
Fri 10:50:14 PM 38.6933 -91.1717 90° East 353 406 11,100 -1,800 Descending Kansas City Center
Fri 10:51:13 PM 38.6931 -91.0592 90° East 325 374 10,200 -1,210 Descending Kansas City Center
Fri 10:52:13 PM 38.7106 -90.9619 77° East 291 335 8,700 -1,475 Descending Kansas City Center
Fri 10:53:15 PM 38.7456 -90.8678 64° Northeast 292 336 7,200 -1,659 Descending Kansas City Center
Fri 10:54:16 PM 38.7756 -90.7778 67° East 280 322 5,300 -1,686 Descending Kansas City Center
Fri 10:55:16 PM 38.8053 -90.6922 66° East 267 307 3,800 -893 Descending Kansas City Center
Fri 10:56:17 PM 38.8306 -90.6150 67° East 251 289 3,500 -144 Descending Kansas City Center
Fri 10:57:21 PM 38.8417 -90.5489 78° East 226 260 3,500 -339 Level Kansas City Center
Fri 10:58:21 PM 38.8122 -90.4975 126° Southeast 194 223 2,800 -700 Descending Kansas City Center

Login

Don't have an account? Register now (free) for customized features, flight alerts, and more!